sensor_id;sensor_type;location;lat;lon;timestamp;P1;durP1;ratioP1;P2;durP2;ratioP2
15412;SDS011;7805;49.554;7.632;2022-07-23T00:01:27;8.30;;;7.53;;
15412;SDS011;7805;49.554;7.632;2022-07-23T00:03:54;8.68;;;7.88;;
15412;SDS011;7805;49.554;7.632;2022-07-23T00:06:20;9.40;;;8.60;;
15412;SDS011;7805;49.554;7.632;2022-07-23T00:08:46;9.45;;;8.50;;
15412;SDS011;7805;49.554;7.632;2022-07-23T00:11:12;9.30;;;8.40;;
15412;SDS011;7805;49.554;7.632;2022-07-23T00:13:37;9.25;;;8.45;;
15412;SDS011;7805;49.554;7.632;2022-07-23T00:16:03;9.35;;;8.55;;
15412;SDS011;7805;49.554;7.632;2022-07-23T00:18:29;9.98;;;8.98;;
15412;SDS011;7805;49.554;7.632;2022-07-23T00:20:55;12.10;;;8.95;;
15412;SDS011;7805;49.554;7.632;2022-07-23T00:23:20;9.25;;;8.30;;
15412;SDS011;7805;49.554;7.632;2022-07-23T00:25:46;8.98;;;8.18;;
15412;SDS011;7805;49.554;7.632;2022-07-23T00:28:12;9.95;;;8.30;;
15412;SDS011;7805;49.554;7.632;2022-07-23T00:30:37;9.70;;;8.70;;
15412;SDS011;7805;49.554;7.632;2022-07-23T00:33:04;9.25;;;8.43;;
15412;SDS011;7805;49.554;7.632;2022-07-23T00:35:33;9.73;;;8.73;;
15412;SDS011;7805;49.554;7.632;2022-07-23T00:38:00;9.00;;;8.20;;
15412;SDS011;7805;49.554;7.632;2022-07-23T00:40:28;9.70;;;8.55;;
15412;SDS011;7805;49.554;7.632;2022-07-23T00:42:54;10.02;;;9.10;;
15412;SDS011;7805;49.554;7.632;2022-07-23T00:45:20;10.00;;;9.00;;
15412;SDS011;7805;49.554;7.632;2022-07-23T00:47:45;9.23;;;8.35;;
15412;SDS011;7805;49.554;7.632;2022-07-23T00:50:12;9.32;;;8.52;;
15412;SDS011;7805;49.554;7.632;2022-07-23T00:52:38;8.90;;;8.10;;
15412;SDS011;7805;49.554;7.632;2022-07-23T00:55:04;11.10;;;8.90;;
15412;SDS011;7805;49.554;7.632;2022-07-23T00:57:31;9.23;;;8.43;;
15412;SDS011;7805;49.554;7.632;2022-07-23T00:59:57;9.45;;;8.50;;
15412;SDS011;7805;49.554;7.632;2022-07-23T01:02:24;9.73;;;8.82;;
15412;SDS011;7805;49.554;7.632;2022-07-23T01:04:53;9.43;;;8.52;;
15412;SDS011;7805;49.554;7.632;2022-07-23T01:07:19;10.07;;;9.10;;
15412;SDS011;7805;49.554;7.632;2022-07-23T01:09:45;11.75;;;9.43;;
15412;SDS011;7805;49.554;7.632;2022-07-23T01:12:11;9.52;;;8.50;;
15412;SDS011;7805;49.554;7.632;2022-07-23T01:14:37;9.25;;;8.45;;
15412;SDS011;7805;49.554;7.632;2022-07-23T01:17:03;9.85;;;8.85;;
15412;SDS011;7805;49.554;7.632;2022-07-23T01:19:29;9.97;;;9.10;;
15412;SDS011;7805;49.554;7.632;2022-07-23T01:21:54;9.93;;;8.95;;
15412;SDS011;7805;49.554;7.632;2022-07-23T01:24:22;9.40;;;8.53;;
15412;SDS011;7805;49.554;7.632;2022-07-23T01:26:48;10.63;;;9.60;;
15412;SDS011;7805;49.554;7.632;2022-07-23T01:29:15;9.27;;;8.37;;
15412;SDS011;7805;49.554;7.632;2022-07-23T01:31:41;9.77;;;8.93;;
15412;SDS011;7805;49.554;7.632;2022-07-23T01:34:07;10.05;;;9.07;;
15412;SDS011;7805;49.554;7.632;2022-07-23T01:36:33;9.40;;;8.50;;
15412;SDS011;7805;49.554;7.632;2022-07-23T01:38:59;9.77;;;8.75;;
15412;SDS011;7805;49.554;7.632;2022-07-23T01:41:25;10.30;;;9.05;;
15412;SDS011;7805;49.554;7.632;2022-07-23T01:43:50;9.43;;;8.60;;
15412;SDS011;7805;49.554;7.632;2022-07-23T01:46:16;9.57;;;8.75;;
15412;SDS011;7805;49.554;7.632;2022-07-23T01:48:42;9.25;;;8.50;;
15412;SDS011;7805;49.554;7.632;2022-07-23T01:51:07;10.02;;;9.13;;
15412;SDS011;7805;49.554;7.632;2022-07-23T01:53:33;10.00;;;9.10;;
15412;SDS011;7805;49.554;7.632;2022-07-23T01:55:59;10.63;;;9.52;;
15412;SDS011;7805;49.554;7.632;2022-07-23T01:58:25;10.13;;;9.03;;
15412;SDS011;7805;49.554;7.632;2022-07-23T02:00:52;10.40;;;9.50;;
15412;SDS011;7805;49.554;7.632;2022-07-23T02:03:18;10.30;;;9.40;;
15412;SDS011;7805;49.554;7.632;2022-07-23T02:05:44;10.57;;;9.68;;
15412;SDS011;7805;49.554;7.632;2022-07-23T02:08:09;10.70;;;9.80;;
15412;SDS011;7805;49.554;7.632;2022-07-23T02:10:35;10.90;;;9.80;;
15412;SDS011;7805;49.554;7.632;2022-07-23T02:13:01;11.60;;;9.80;;
15412;SDS011;7805;49.554;7.632;2022-07-23T02:15:26;10.73;;;9.60;;
15412;SDS011;7805;49.554;7.632;2022-07-23T02:17:53;10.23;;;9.33;;
15412;SDS011;7805;49.554;7.632;2022-07-23T02:20:19;10.67;;;9.77;;
15412;SDS011;7805;49.554;7.632;2022-07-23T02:22:44;10.37;;;9.27;;
15412;SDS011;7805;49.554;7.632;2022-07-23T02:25:10;10.30;;;9.23;;
15412;SDS011;7805;49.554;7.632;2022-07-23T02:27:36;11.67;;;10.57;;
15412;SDS011;7805;49.554;7.632;2022-07-23T02:30:02;9.77;;;8.87;;
15412;SDS011;7805;49.554;7.632;2022-07-23T02:32:28;10.70;;;9.70;;
15412;SDS011;7805;49.554;7.632;2022-07-23T02:34:54;10.83;;;9.73;;
15412;SDS011;7805;49.554;7.632;2022-07-23T02:37:20;10.60;;;9.57;;
15412;SDS011;7805;49.554;7.632;2022-07-23T02:39:46;10.20;;;9.30;;
15412;SDS011;7805;49.554;7.632;2022-07-23T02:42:13;11.27;;;10.07;;
15412;SDS011;7805;49.554;7.632;2022-07-23T02:44:39;11.37;;;10.30;;
15412;SDS011;7805;49.554;7.632;2022-07-23T02:47:04;10.43;;;9.53;;
15412;SDS011;7805;49.554;7.632;2022-07-23T02:49:30;11.77;;;10.67;;
15412;SDS011;7805;49.554;7.632;2022-07-23T02:51:56;11.17;;;10.07;;
15412;SDS011;7805;49.554;7.632;2022-07-23T02:54:22;11.90;;;10.73;;
15412;SDS011;7805;49.554;7.632;2022-07-23T02:56:47;11.97;;;10.83;;
15412;SDS011;7805;49.554;7.632;2022-07-23T02:59:13;11.40;;;10.40;;
15412;SDS011;7805;49.554;7.632;2022-07-23T03:01:39;12.10;;;11.00;;
15412;SDS011;7805;49.554;7.632;2022-07-23T03:04:04;11.03;;;10.03;;
15412;SDS011;7805;49.554;7.632;2022-07-23T03:06:30;10.90;;;9.90;;
15412;SDS011;7805;49.554;7.632;2022-07-23T03:08:55;11.63;;;10.47;;
15412;SDS011;7805;49.554;7.632;2022-07-23T03:11:21;11.17;;;10.00;;
15412;SDS011;7805;49.554;7.632;2022-07-23T03:13:46;10.73;;;9.63;;
15412;SDS011;7805;49.554;7.632;2022-07-23T03:16:12;11.60;;;10.47;;
15412;SDS011;7805;49.554;7.632;2022-07-23T03:18:38;11.53;;;10.53;;
15412;SDS011;7805;49.554;7.632;2022-07-23T03:21:03;10.77;;;9.77;;
15412;SDS011;7805;49.554;7.632;2022-07-23T03:23:29;10.47;;;9.47;;
15412;SDS011;7805;49.554;7.632;2022-07-23T03:25:55;12.07;;;9.53;;
15412;SDS011;7805;49.554;7.632;2022-07-23T03:28:20;10.70;;;9.80;;
15412;SDS011;7805;49.554;7.632;2022-07-23T03:30:46;11.67;;;10.57;;
15412;SDS011;7805;49.554;7.632;2022-07-23T03:33:12;10.43;;;9.27;;
15412;SDS011;7805;49.554;7.632;2022-07-23T03:35:39;10.57;;;9.57;;
15412;SDS011;7805;49.554;7.632;2022-07-23T03:38:05;11.50;;;10.13;;
15412;SDS011;7805;49.554;7.632;2022-07-23T03:40:30;11.20;;;10.20;;
15412;SDS011;7805;49.554;7.632;2022-07-23T03:42:56;10.60;;;9.70;;
15412;SDS011;7805;49.554;7.632;2022-07-23T03:45:22;10.37;;;9.37;;
15412;SDS011;7805;49.554;7.632;2022-07-23T03:47:47;11.87;;;10.27;;
15412;SDS011;7805;49.554;7.632;2022-07-23T03:50:13;10.50;;;9.50;;
15412;SDS011;7805;49.554;7.632;2022-07-23T03:52:39;11.30;;;9.87;;
15412;SDS011;7805;49.554;7.632;2022-07-23T03:55:04;11.77;;;10.17;;
15412;SDS011;7805;49.554;7.632;2022-07-23T03:57:31;10.63;;;9.73;;
15412;SDS011;7805;49.554;7.632;2022-07-23T03:59:56;10.70;;;9.70;;
15412;SDS011;7805;49.554;7.632;2022-07-23T04:02:22;11.70;;;10.50;;
15412;SDS011;7805;49.554;7.632;2022-07-23T04:04:48;11.13;;;10.03;;
15412;SDS011;7805;49.554;7.632;2022-07-23T04:07:14;11.90;;;10.80;;
15412;SDS011;7805;49.554;7.632;2022-07-23T04:09:40;12.07;;;10.77;;
15412;SDS011;7805;49.554;7.632;2022-07-23T04:12:06;11.87;;;10.73;;
15412;SDS011;7805;49.554;7.632;2022-07-23T04:14:32;11.57;;;10.43;;
15412;SDS011;7805;49.554;7.632;2022-07-23T04:16:58;11.90;;;9.90;;
15412;SDS011;7805;49.554;7.632;2022-07-23T04:19:24;11.20;;;10.20;;
15412;SDS011;7805;49.554;7.632;2022-07-23T04:21:50;11.87;;;10.33;;
15412;SDS011;7805;49.554;7.632;2022-07-23T04:24:16;9.97;;;9.07;;
15412;SDS011;7805;49.554;7.632;2022-07-23T04:26:42;14.43;;;11.27;;
15412;SDS011;7805;49.554;7.632;2022-07-23T04:29:08;11.60;;;10.50;;
15412;SDS011;7805;49.554;7.632;2022-07-23T04:31:34;11.77;;;10.67;;
15412;SDS011;7805;49.554;7.632;2022-07-23T04:34:00;12.93;;;11.67;;
15412;SDS011;7805;49.554;7.632;2022-07-23T04:36:25;11.53;;;10.43;;
15412;SDS011;7805;49.554;7.632;2022-07-23T04:38:51;12.60;;;11.43;;
15412;SDS011;7805;49.554;7.632;2022-07-23T04:41:16;13.70;;;12.33;;
15412;SDS011;7805;49.554;7.632;2022-07-23T04:43:42;12.80;;;11.50;;
15412;SDS011;7805;49.554;7.632;2022-07-23T04:46:08;12.40;;;11.23;;
15412;SDS011;7805;49.554;7.632;2022-07-23T04:48:35;13.80;;;12.43;;
15412;SDS011;7805;49.554;7.632;2022-07-23T04:51:01;12.00;;;10.80;;
15412;SDS011;7805;49.554;7.632;2022-07-23T04:53:26;13.27;;;11.97;;
15412;SDS011;7805;49.554;7.632;2022-07-23T04:55:52;13.20;;;11.43;;
15412;SDS011;7805;49.554;7.632;2022-07-23T04:58:18;12.67;;;11.37;;
15412;SDS011;7805;49.554;7.632;2022-07-23T05:00:43;12.20;;;10.93;;
15412;SDS011;7805;49.554;7.632;2022-07-23T05:03:09;13.93;;;12.57;;
15412;SDS011;7805;49.554;7.632;2022-07-23T05:05:34;14.37;;;12.87;;
15412;SDS011;7805;49.554;7.632;2022-07-23T05:08:00;13.97;;;12.53;;
15412;SDS011;7805;49.554;7.632;2022-07-23T05:10:26;14.83;;;12.70;;
15412;SDS011;7805;49.554;7.632;2022-07-23T05:12:52;15.93;;;13.67;;
15412;SDS011;7805;49.554;7.632;2022-07-23T05:15:17;14.23;;;12.73;;
15412;SDS011;7805;49.554;7.632;2022-07-23T05:17:43;14.43;;;12.93;;
15412;SDS011;7805;49.554;7.632;2022-07-23T05:20:09;13.43;;;12.10;;
15412;SDS011;7805;49.554;7.632;2022-07-23T05:22:35;14.73;;;13.20;;
15412;SDS011;7805;49.554;7.632;2022-07-23T05:25:00;13.93;;;12.53;;
15412;SDS011;7805;49.554;7.632;2022-07-23T05:27:26;13.40;;;12.10;;
15412;SDS011;7805;49.554;7.632;2022-07-23T05:29:51;14.53;;;12.00;;
15412;SDS011;7805;49.554;7.632;2022-07-23T05:32:17;13.40;;;11.50;;
15412;SDS011;7805;49.554;7.632;2022-07-23T05:34:42;14.17;;;12.37;;
15412;SDS011;7805;49.554;7.632;2022-07-23T05:37:08;13.17;;;11.87;;
15412;SDS011;7805;49.554;7.632;2022-07-23T05:39:34;15.80;;;13.43;;
15412;SDS011;7805;49.554;7.632;2022-07-23T05:41:59;14.20;;;12.83;;
15412;SDS011;7805;49.554;7.632;2022-07-23T05:44:25;14.30;;;12.80;;
15412;SDS011;7805;49.554;7.632;2022-07-23T05:46:52;14.83;;;13.20;;
15412;SDS011;7805;49.554;7.632;2022-07-23T05:49:18;13.97;;;12.67;;
15412;SDS011;7805;49.554;7.632;2022-07-23T05:51:43;14.63;;;13.10;;
15412;SDS011;7805;49.554;7.632;2022-07-23T05:54:10;13.50;;;12.20;;
15412;SDS011;7805;49.554;7.632;2022-07-23T05:56:35;18.03;;;12.50;;
15412;SDS011;7805;49.554;7.632;2022-07-23T05:59:01;12.93;;;11.73;;
15412;SDS011;7805;49.554;7.632;2022-07-23T06:01:27;13.60;;;12.07;;
15412;SDS011;7805;49.554;7.632;2022-07-23T06:03:52;13.57;;;12.03;;
15412;SDS011;7805;49.554;7.632;2022-07-23T06:06:18;12.20;;;11.10;;
15412;SDS011;7805;49.554;7.632;2022-07-23T06:08:44;13.40;;;11.98;;
15412;SDS011;7805;49.554;7.632;2022-07-23T06:11:09;13.32;;;11.80;;
15412;SDS011;7805;49.554;7.632;2022-07-23T06:13:35;13.07;;;11.73;;
15412;SDS011;7805;49.554;7.632;2022-07-23T06:16:01;11.75;;;10.57;;
15412;SDS011;7805;49.554;7.632;2022-07-23T06:18:27;13.23;;;11.93;;
15412;SDS011;7805;49.554;7.632;2022-07-23T06:20:52;13.45;;;12.05;;
15412;SDS011;7805;49.554;7.632;2022-07-23T06:23:18;11.85;;;10.68;;
15412;SDS011;7805;49.554;7.632;2022-07-23T06:25:44;14.20;;;11.57;;
15412;SDS011;7805;49.554;7.632;2022-07-23T06:28:09;12.90;;;11.52;;
15412;SDS011;7805;49.554;7.632;2022-07-23T06:30:35;13.02;;;11.75;;
15412;SDS011;7805;49.554;7.632;2022-07-23T06:33:00;13.07;;;11.63;;
15412;SDS011;7805;49.554;7.632;2022-07-23T06:35:26;11.38;;;10.38;;
15412;SDS011;7805;49.554;7.632;2022-07-23T06:37:51;12.75;;;11.55;;
15412;SDS011;7805;49.554;7.632;2022-07-23T06:40:17;13.57;;;10.52;;
15412;SDS011;7805;49.554;7.632;2022-07-23T06:42:43;11.60;;;10.38;;
15412;SDS011;7805;49.554;7.632;2022-07-23T06:45:08;12.55;;;11.35;;
15412;SDS011;7805;49.554;7.632;2022-07-23T06:47:34;11.55;;;10.43;;
15412;SDS011;7805;49.554;7.632;2022-07-23T06:50:00;12.77;;;11.60;;
15412;SDS011;7805;49.554;7.632;2022-07-23T06:52:26;11.02;;;9.70;;
15412;SDS011;7805;49.554;7.632;2022-07-23T06:54:52;10.63;;;9.63;;
15412;SDS011;7805;49.554;7.632;2022-07-23T06:57:18;13.18;;;9.85;;
15412;SDS011;7805;49.554;7.632;2022-07-23T06:59:43;10.35;;;9.35;;
15412;SDS011;7805;49.554;7.632;2022-07-23T07:02:09;11.35;;;10.20;;
15412;SDS011;7805;49.554;7.632;2022-07-23T07:04:35;11.15;;;10.05;;
15412;SDS011;7805;49.554;7.632;2022-07-23T07:07:00;10.57;;;9.57;;
15412;SDS011;7805;49.554;7.632;2022-07-23T07:09:26;10.75;;;9.65;;
15412;SDS011;7805;49.554;7.632;2022-07-23T07:11:52;10.95;;;9.95;;
15412;SDS011;7805;49.554;7.632;2022-07-23T07:14:17;9.45;;;8.48;;
15412;SDS011;7805;49.554;7.632;2022-07-23T07:16:43;10.18;;;9.18;;
15412;SDS011;7805;49.554;7.632;2022-07-23T07:19:09;10.40;;;9.50;;
15412;SDS011;7805;49.554;7.632;2022-07-23T07:21:34;10.48;;;9.48;;
15412;SDS011;7805;49.554;7.632;2022-07-23T07:24:00;10.55;;;9.60;;
15412;SDS011;7805;49.554;7.632;2022-07-23T07:26:26;10.20;;;9.40;;
15412;SDS011;7805;49.554;7.632;2022-07-23T07:28:52;10.00;;;9.05;;
15412;SDS011;7805;49.554;7.632;2022-07-23T07:31:17;10.25;;;9.00;;
15412;SDS011;7805;49.554;7.632;2022-07-23T07:33:43;10.88;;;9.40;;
15412;SDS011;7805;49.554;7.632;2022-07-23T07:36:08;10.50;;;9.50;;
15412;SDS011;7805;49.554;7.632;2022-07-23T07:38:34;10.50;;;9.50;;
15412;SDS011;7805;49.554;7.632;2022-07-23T07:41:00;10.50;;;9.50;;
15412;SDS011;7805;49.554;7.632;2022-07-23T07:43:25;10.38;;;9.57;;
15412;SDS011;7805;49.554;7.632;2022-07-23T07:45:51;9.98;;;8.07;;
15412;SDS011;7805;49.554;7.632;2022-07-23T07:48:17;9.45;;;8.55;;
15412;SDS011;7805;49.554;7.632;2022-07-23T07:50:42;9.57;;;8.77;;
15412;SDS011;7805;49.554;7.632;2022-07-23T07:53:08;9.70;;;8.80;;
15412;SDS011;7805;49.554;7.632;2022-07-23T07:55:34;9.32;;;8.45;;
15412;SDS011;7805;49.554;7.632;2022-07-23T07:57:59;11.32;;;9.32;;
15412;SDS011;7805;49.554;7.632;2022-07-23T08:00:25;9.60;;;8.80;;
15412;SDS011;7805;49.554;7.632;2022-07-23T08:02:51;8.95;;;8.00;;
15412;SDS011;7805;49.554;7.632;2022-07-23T08:05:19;9.30;;;8.50;;
15412;SDS011;7805;49.554;7.632;2022-07-23T08:07:46;8.93;;;8.13;;
15412;SDS011;7805;49.554;7.632;2022-07-23T08:10:12;8.98;;;8.25;;
15412;SDS011;7805;49.554;7.632;2022-07-23T08:12:42;9.43;;;8.50;;
15412;SDS011;7805;49.554;7.632;2022-07-23T08:15:12;8.25;;;7.57;;
15412;SDS011;7805;49.554;7.632;2022-07-23T08:17:40;9.57;;;8.68;;
15412;SDS011;7805;49.554;7.632;2022-07-23T08:20:07;9.05;;;8.23;;
15412;SDS011;7805;49.554;7.632;2022-07-23T08:22:44;9.82;;;8.88;;
15412;SDS011;7805;49.554;7.632;2022-07-23T08:25:10;9.40;;;8.35;;
15412;SDS011;7805;49.554;7.632;2022-07-23T08:27:36;8.88;;;7.80;;
15412;SDS011;7805;49.554;7.632;2022-07-23T08:30:02;9.60;;;8.68;;
15412;SDS011;7805;49.554;7.632;2022-07-23T08:32:28;8.30;;;7.50;;
15412;SDS011;7805;49.554;7.632;2022-07-23T08:34:54;8.80;;;8.07;;
15412;SDS011;7805;49.554;7.632;2022-07-23T08:37:19;9.55;;;8.65;;
15412;SDS011;7805;49.554;7.632;2022-07-23T08:39:45;8.60;;;7.90;;
15412;SDS011;7805;49.554;7.632;2022-07-23T08:42:11;8.45;;;7.65;;
15412;SDS011;7805;49.554;7.632;2022-07-23T08:44:39;7.75;;;7.15;;
15412;SDS011;7805;49.554;7.632;2022-07-23T08:47:09;9.10;;;8.30;;
15412;SDS011;7805;49.554;7.632;2022-07-23T08:49:35;8.48;;;7.68;;
15412;SDS011;7805;49.554;7.632;2022-07-23T08:52:01;8.80;;;8.00;;
15412;SDS011;7805;49.554;7.632;2022-07-23T08:54:27;8.45;;;7.75;;
15412;SDS011;7805;49.554;7.632;2022-07-23T08:56:53;11.20;;;8.15;;
15412;SDS011;7805;49.554;7.632;2022-07-23T08:59:18;8.48;;;7.80;;
15412;SDS011;7805;49.554;7.632;2022-07-23T09:01:44;9.65;;;8.15;;
15412;SDS011;7805;49.554;7.632;2022-07-23T09:04:09;9.25;;;8.20;;
15412;SDS011;7805;49.554;7.632;2022-07-23T09:06:38;9.13;;;8.23;;
15412;SDS011;7805;49.554;7.632;2022-07-23T09:09:17;7.63;;;6.88;;
15412;SDS011;7805;49.554;7.632;2022-07-23T09:11:48;8.13;;;7.53;;
15412;SDS011;7805;49.554;7.632;2022-07-23T09:14:39;8.50;;;7.35;;
15412;SDS011;7805;49.554;7.632;2022-07-23T09:17:13;7.93;;;7.20;;
15412;SDS011;7805;49.554;7.632;2022-07-23T09:19:40;8.05;;;7.35;;
15412;SDS011;7805;49.554;7.632;2022-07-23T09:22:20;7.70;;;7.10;;
15412;SDS011;7805;49.554;7.632;2022-07-23T09:25:07;7.32;;;6.63;;
15412;SDS011;7805;49.554;7.632;2022-07-23T09:30:17;8.57;;;7.78;;
15412;SDS011;7805;49.554;7.632;2022-07-23T09:35:49;9.25;;;7.32;;
15412;SDS011;7805;49.554;7.632;2022-07-23T09:38:20;8.32;;;7.53;;
15412;SDS011;7805;49.554;7.632;2022-07-23T09:43:35;8.00;;;7.40;;
15412;SDS011;7805;49.554;7.632;2022-07-23T09:46:23;7.53;;;6.93;;
15412;SDS011;7805;49.554;7.632;2022-07-23T09:48:51;8.02;;;7.22;;
15412;SDS011;7805;49.554;7.632;2022-07-23T09:51:18;7.50;;;6.90;;
15412;SDS011;7805;49.554;7.632;2022-07-23T09:54:02;8.20;;;7.50;;
15412;SDS011;7805;49.554;7.632;2022-07-23T09:56:28;7.55;;;6.72;;
15412;SDS011;7805;49.554;7.632;2022-07-23T09:58:54;7.75;;;7.18;;
15412;SDS011;7805;49.554;7.632;2022-07-23T10:01:31;8.38;;;7.45;;
15412;SDS011;7805;49.554;7.632;2022-07-23T10:03:58;7.13;;;6.63;;
15412;SDS011;7805;49.554;7.632;2022-07-23T10:06:24;7.97;;;7.38;;
15412;SDS011;7805;49.554;7.632;2022-07-23T10:08:50;8.02;;;7.28;;
15412;SDS011;7805;49.554;7.632;2022-07-23T10:11:18;7.25;;;6.63;;
15412;SDS011;7805;49.554;7.632;2022-07-23T10:13:44;7.70;;;7.00;;
15412;SDS011;7805;49.554;7.632;2022-07-23T10:16:12;6.70;;;6.20;;
15412;SDS011;7805;49.554;7.632;2022-07-23T10:18:38;7.88;;;7.18;;
15412;SDS011;7805;49.554;7.632;2022-07-23T10:21:07;7.28;;;6.68;;
15412;SDS011;7805;49.554;7.632;2022-07-23T10:23:48;7.35;;;6.75;;
15412;SDS011;7805;49.554;7.632;2022-07-23T10:26:32;7.18;;;6.57;;
15412;SDS011;7805;49.554;7.632;2022-07-23T10:29:08;6.85;;;6.20;;
15412;SDS011;7805;49.554;7.632;2022-07-23T10:32:04;7.38;;;6.70;;
15412;SDS011;7805;49.554;7.632;2022-07-23T10:37:30;7.15;;;6.47;;
15412;SDS011;7805;49.554;7.632;2022-07-23T10:40:08;6.57;;;6.07;;
15412;SDS011;7805;49.554;7.632;2022-07-23T10:42:33;6.57;;;6.07;;
15412;SDS011;7805;49.554;7.632;2022-07-23T10:45:01;6.72;;;6.18;;
15412;SDS011;7805;49.554;7.632;2022-07-23T10:48:11;6.80;;;6.22;;
15412;SDS011;7805;49.554;7.632;2022-07-23T10:50:38;7.47;;;6.78;;
15412;SDS011;7805;49.554;7.632;2022-07-23T10:57:56;6.88;;;6.32;;
15412;SDS011;7805;49.554;7.632;2022-07-23T11:00:32;6.30;;;5.88;;
15412;SDS011;7805;49.554;7.632;2022-07-23T11:02:59;6.72;;;6.22;;
15412;SDS011;7805;49.554;7.632;2022-07-23T11:05:43;7.05;;;6.45;;
15412;SDS011;7805;49.554;7.632;2022-07-23T11:08:11;6.05;;;5.65;;
15412;SDS011;7805;49.554;7.632;2022-07-23T11:10:46;6.18;;;5.72;;
15412;SDS011;7805;49.554;7.632;2022-07-23T11:13:41;6.63;;;6.07;;
15412;SDS011;7805;49.554;7.632;2022-07-23T11:16:10;7.65;;;6.60;;
15412;SDS011;7805;49.554;7.632;2022-07-23T11:24:03;6.60;;;6.10;;
15412;SDS011;7805;49.554;7.632;2022-07-23T11:31:54;7.70;;;6.50;;
15412;SDS011;7805;49.554;7.632;2022-07-23T11:34:24;6.25;;;5.85;;
15412;SDS011;7805;49.554;7.632;2022-07-23T11:36:53;6.28;;;5.78;;
15412;SDS011;7805;49.554;7.632;2022-07-23T11:39:18;7.05;;;6.45;;
15412;SDS011;7805;49.554;7.632;2022-07-23T11:41:45;6.32;;;5.82;;
15412;SDS011;7805;49.554;7.632;2022-07-23T11:44:30;6.38;;;5.95;;
15412;SDS011;7805;49.554;7.632;2022-07-23T11:47:04;7.70;;;7.00;;
15412;SDS011;7805;49.554;7.632;2022-07-23T11:49:31;7.13;;;6.30;;
15412;SDS011;7805;49.554;7.632;2022-07-23T11:54:30;6.50;;;6.00;;
15412;SDS011;7805;49.554;7.632;2022-07-23T11:56:56;6.90;;;6.30;;
15412;SDS011;7805;49.554;7.632;2022-07-23T11:59:23;6.75;;;6.32;;
15412;SDS011;7805;49.554;7.632;2022-07-23T12:02:00;6.80;;;6.20;;
15412;SDS011;7805;49.554;7.632;2022-07-23T12:04:42;7.07;;;6.45;;
15412;SDS011;7805;49.554;7.632;2022-07-23T12:09:58;6.18;;;5.78;;
15412;SDS011;7805;49.554;7.632;2022-07-23T12:12:27;7.63;;;7.03;;
15412;SDS011;7805;49.554;7.632;2022-07-23T12:15:01;7.32;;;6.47;;
15412;SDS011;7805;49.554;7.632;2022-07-23T12:17:30;6.50;;;5.93;;
15412;SDS011;7805;49.554;7.632;2022-07-23T12:19:58;6.78;;;6.20;;
15412;SDS011;7805;49.554;7.632;2022-07-23T12:22:25;5.93;;;5.53;;
15412;SDS011;7805;49.554;7.632;2022-07-23T12:25:04;7.95;;;6.75;;
15412;SDS011;7805;49.554;7.632;2022-07-23T12:27:35;6.75;;;6.20;;
15412;SDS011;7805;49.554;7.632;2022-07-23T12:30:18;7.18;;;6.47;;
15412;SDS011;7805;49.554;7.632;2022-07-23T12:32:48;6.82;;;6.32;;
15412;SDS011;7805;49.554;7.632;2022-07-23T12:35:14;6.70;;;6.00;;
15412;SDS011;7805;49.554;7.632;2022-07-23T12:37:41;6.50;;;6.00;;
15412;SDS011;7805;49.554;7.632;2022-07-23T12:42:55;7.90;;;6.47;;
15412;SDS011;7805;49.554;7.632;2022-07-23T12:45:25;6.90;;;6.40;;
15412;SDS011;7805;49.554;7.632;2022-07-23T12:53:15;6.75;;;5.93;;
15412;SDS011;7805;49.554;7.632;2022-07-23T12:55:43;6.82;;;6.32;;
15412;SDS011;7805;49.554;7.632;2022-07-23T12:58:11;6.80;;;6.28;;
15412;SDS011;7805;49.554;7.632;2022-07-23T13:00:51;6.70;;;6.15;;
15412;SDS011;7805;49.554;7.632;2022-07-23T13:03:29;6.20;;;5.70;;
15412;SDS011;7805;49.554;7.632;2022-07-23T13:06:04;6.85;;;6.18;;
15412;SDS011;7805;49.554;7.632;2022-07-23T13:08:31;6.70;;;6.10;;
15412;SDS011;7805;49.554;7.632;2022-07-23T13:10:58;6.50;;;6.00;;
15412;SDS011;7805;49.554;7.632;2022-07-23T13:13:25;6.40;;;5.90;;
15412;SDS011;7805;49.554;7.632;2022-07-23T13:15:52;6.53;;;5.95;;
15412;SDS011;7805;49.554;7.632;2022-07-23T13:18:19;6.78;;;6.18;;
15412;SDS011;7805;49.554;7.632;2022-07-23T13:20:46;6.15;;;5.65;;
15412;SDS011;7805;49.554;7.632;2022-07-23T13:23:12;6.25;;;5.78;;
15412;SDS011;7805;49.554;7.632;2022-07-23T13:25:38;6.50;;;5.60;;
15412;SDS011;7805;49.554;7.632;2022-07-23T13:28:04;5.55;;;5.15;;
15412;SDS011;7805;49.554;7.632;2022-07-23T13:30:30;6.07;;;5.53;;
15412;SDS011;7805;49.554;7.632;2022-07-23T13:32:55;6.32;;;5.82;;
15412;SDS011;7805;49.554;7.632;2022-07-23T13:35:21;7.38;;;5.28;;
15412;SDS011;7805;49.554;7.632;2022-07-23T13:37:47;6.10;;;5.60;;
15412;SDS011;7805;49.554;7.632;2022-07-23T13:40:13;6.30;;;5.70;;
15412;SDS011;7805;49.554;7.632;2022-07-23T13:42:39;6.65;;;5.60;;
15412;SDS011;7805;49.554;7.632;2022-07-23T13:45:05;5.68;;;5.15;;
15412;SDS011;7805;49.554;7.632;2022-07-23T13:47:31;5.90;;;5.50;;
15412;SDS011;7805;49.554;7.632;2022-07-23T13:49:57;6.57;;;6.05;;
15412;SDS011;7805;49.554;7.632;2022-07-23T13:52:23;6.00;;;5.50;;
15412;SDS011;7805;49.554;7.632;2022-07-23T13:54:48;5.47;;;5.15;;
15412;SDS011;7805;49.554;7.632;2022-07-23T13:57:14;5.82;;;5.35;;
15412;SDS011;7805;49.554;7.632;2022-07-23T13:59:40;6.35;;;5.78;;
15412;SDS011;7805;49.554;7.632;2022-07-23T14:02:06;6.22;;;5.63;;
15412;SDS011;7805;49.554;7.632;2022-07-23T14:04:32;5.60;;;5.15;;
15412;SDS011;7805;49.554;7.632;2022-07-23T14:06:58;6.18;;;5.68;;
15412;SDS011;7805;49.554;7.632;2022-07-23T14:09:24;5.85;;;5.45;;
15412;SDS011;7805;49.554;7.632;2022-07-23T14:11:50;5.65;;;5.15;;
15412;SDS011;7805;49.554;7.632;2022-07-23T14:14:16;6.20;;;5.68;;
15412;SDS011;7805;49.554;7.632;2022-07-23T14:16:42;6.18;;;5.68;;
15412;SDS011;7805;49.554;7.632;2022-07-23T14:19:09;6.47;;;5.95;;
15412;SDS011;7805;49.554;7.632;2022-07-23T14:21:35;5.80;;;5.35;;
15412;SDS011;7805;49.554;7.632;2022-07-23T14:24:01;6.00;;;5.50;;
15412;SDS011;7805;49.554;7.632;2022-07-23T14:26:27;6.47;;;5.97;;
15412;SDS011;7805;49.554;7.632;2022-07-23T14:28:52;6.47;;;5.82;;
15412;SDS011;7805;49.554;7.632;2022-07-23T14:31:18;6.97;;;5.93;;
15412;SDS011;7805;49.554;7.632;2022-07-23T14:33:43;6.20;;;5.60;;
15412;SDS011;7805;49.554;7.632;2022-07-23T14:36:09;6.22;;;5.35;;
15412;SDS011;7805;49.554;7.632;2022-07-23T14:38:35;5.75;;;5.35;;
15412;SDS011;7805;49.554;7.632;2022-07-23T14:41:00;7.07;;;5.93;;
15412;SDS011;7805;49.554;7.632;2022-07-23T14:43:26;6.30;;;5.80;;
15412;SDS011;7805;49.554;7.632;2022-07-23T14:45:51;6.78;;;5.38;;
15412;SDS011;7805;49.554;7.632;2022-07-23T14:48:17;5.32;;;4.93;;
15412;SDS011;7805;49.554;7.632;2022-07-23T14:50:43;6.30;;;5.82;;
15412;SDS011;7805;49.554;7.632;2022-07-23T14:53:08;6.07;;;5.47;;
15412;SDS011;7805;49.554;7.632;2022-07-23T14:55:34;6.18;;;5.68;;
15412;SDS011;7805;49.554;7.632;2022-07-23T14:58:00;6.60;;;5.50;;
15412;SDS011;7805;49.554;7.632;2022-07-23T15:00:25;5.75;;;5.35;;
15412;SDS011;7805;49.554;7.632;2022-07-23T15:02:51;5.88;;;5.28;;
15412;SDS011;7805;49.554;7.632;2022-07-23T15:05:18;6.78;;;5.53;;
15412;SDS011;7805;49.554;7.632;2022-07-23T15:07:43;6.20;;;5.50;;
15412;SDS011;7805;49.554;7.632;2022-07-23T15:10:09;6.75;;;5.65;;
15412;SDS011;7805;49.554;7.632;2022-07-23T15:12:35;5.85;;;5.45;;
15412;SDS011;7805;49.554;7.632;2022-07-23T15:15:00;6.13;;;5.53;;
15412;SDS011;7805;49.554;7.632;2022-07-23T15:17:26;6.00;;;5.53;;
15412;SDS011;7805;49.554;7.632;2022-07-23T15:19:52;5.97;;;5.47;;
15412;SDS011;7805;49.554;7.632;2022-07-23T15:22:17;6.15;;;5.55;;
15412;SDS011;7805;49.554;7.632;2022-07-23T15:24:43;6.07;;;5.68;;
15412;SDS011;7805;49.554;7.632;2022-07-23T15:27:09;8.88;;;5.80;;
15412;SDS011;7805;49.554;7.632;2022-07-23T15:29:34;5.65;;;5.32;;
15412;SDS011;7805;49.554;7.632;2022-07-23T15:32:01;6.07;;;5.47;;
15412;SDS011;7805;49.554;7.632;2022-07-23T15:34:27;5.50;;;5.10;;